Flight Track Log - Related Links

Times and Time Zones

All times are in EDT time to prevent confusion due to time zone crossing. See the UAL1444 flight status page for this flight to view local times or setup timezone preferences in your user account.

Time Position Orientation Groundspeed Altitude Reporting Facility
EDT Latitude Longitude Course Direction KTS MPH feet Rate Location/Type
Fri 10:43:32 AM 47.3200 -122.2990 154° Southeast 267 307 3,700  Level FlightAware ADS-B
Fri 10:43:37 AM 47.3150 -122.2910 133° Southeast 269 310 4,000 2,800 Climbing FlightAware ADS-B
Fri 10:44:02 AM 47.3060 -122.2500 108° East 267 307 5,100 2,618 Climbing FlightAware ADS-B
Fri 10:44:32 AM 47.3070 -122.1950 88° East 275 316 6,400 2,509 Climbing FlightAware ADS-B
Fri 10:44:57 AM 47.3140 -122.1480 78° East 285 328 7,400 2,400 Climbing FlightAware ADS-B
Fri 10:45:07 AM 47.3200 -122.1270 67° East 288 331 7,800 2,400 Climbing FlightAware ADS-B
Fri 10:45:37 AM 47.3370 -122.0650 68° East 304 350 9,000 2,160 Climbing FlightAware ADS-B
Fri 10:45:57 AM 47.3440 -122.0400 68° East 305 351 9,600 1,600 Climbing FlightAware ADS-B
Fri 10:46:37 AM 47.3660 -121.9580 68° East 336 387 10,600 1,575 Climbing FlightAware ADS-B
Fri 10:47:17 AM 47.3920 -121.8600 69° East 369 425 11,700 1,326 Climbing FlightAware ADS-B
Fri 10:48:12 AM 47.4220 -121.7490 68° East 372 428 12,700 632 Climbing FlightAware ADS-B
Fri 10:48:52 AM 47.4440 -121.6690 68° East 372 428 12,700  Level FlightAware ADS-B
Fri 10:49:42 AM 47.4720 -121.5690 67° East 372 428 12,700 4,700 Level FlightAware ADS-B
Fri 10:49:52 AM 47.4260 -121.4600 122° Southeast 399 459 17,400 6,764 Climbing FlightAware ADS-B
Fri 10:50:37 AM 47.4240 -121.3360 91° East 405 466 18,900 1,835 Climbing FlightAware ADS-B
Fri 10:51:17 AM 47.4220 -121.2240 91° East 417 480 20,000 1,650 Climbing FlightAware ADS-B
Fri 10:51:57 AM 47.4200 -121.1060 91° East 425 489 21,100 1,694 Climbing FlightAware ADS-B
Fri 10:52:42 AM 47.4180 -120.9780 91° East 430 495 22,400 1,624 Climbing FlightAware ADS-B
Fri 10:53:22 AM 47.4160 -120.8610 91° East 435 501 23,400 1,500 Climbing FlightAware ADS-B
Fri 10:54:02 AM 47.4130 -120.7420 92° East 438 504 24,400 1,412 Climbing FlightAware ADS-B
Fri 10:54:47 AM 47.4100 -120.6060 92° East 443 510 25,400 1,271 Climbing FlightAware ADS-B
Fri 10:55:27 AM 47.4080 -120.4810 91° East 451 519 26,200 1,050 Climbing FlightAware ADS-B
Fri 10:56:07 AM 47.4050 -120.3590 92° East 458 527 26,800 918 Climbing FlightAware ADS-B
Fri 10:56:52 AM 47.4110 -120.2280 86° East 463 533 27,500 988 Climbing FlightAware ADS-B
Fri 10:57:32 AM 47.3920 -120.0970 102° East 468 539 28,200 1,059 Climbing FlightAware ADS-B
Fri 10:58:17 AM 47.3910 -119.9500 91° East 472 543 29,000 1,059 Climbing FlightAware ADS-B
Fri 10:58:57 AM 47.3900 -119.8230 91° East 472 543 29,700 1,129 Climbing FlightAware ADS-B
Fri 10:59:42 AM 47.3870 -119.6780 92° East 470 541 30,600 1,129 Climbing FlightAware ADS-B
Fri 11:00:22 AM 47.3830 -119.5550 93° East 469 540 31,300 918 Climbing FlightAware ADS-B
Fri 11:01:07 AM 47.3770 -119.4060 93° East 471 542 31,900 847 Climbing FlightAware ADS-B
Fri 11:01:47 AM 47.3680 -119.2790 96° East 472 543 32,500 825 Climbing FlightAware ADS-B
Fri 11:02:27 AM 47.3590 -119.1490 96° East 474 545 33,000 706 Climbing FlightAware ADS-B
Fri 11:03:12 AM 47.3490 -119.0100 96° East 475 547 33,500 424 Climbing FlightAware ADS-B
Fri 11:03:52 AM 47.3390 -118.8800 96° East 475 547 33,600 -150 Climbing FlightAware ADS-B
Fri 11:04:32 AM 47.3290 -118.7550 97° East 475 547 33,300 -494 Descending FlightAware ADS-B
Fri 11:05:17 AM 47.3180 -118.6050 96° East 474 545 32,900 -212 Descending FlightAware ADS-B
Fri 11:05:57 AM 47.3080 -118.4810 97° East 478 550 33,000 75 Climbing FlightAware ADS-B
Fri 11:06:37 AM 47.3020 -118.3480 94° East 480 552 33,000  Level FlightAware ADS-B
Fri 11:07:32 AM 47.2950 -118.1790 93° East 481 554 33,000  Level FlightAware ADS-B
Fri 11:08:12 AM 47.2910 -118.0680 93° East 481 554 33,000  Level FlightAware ADS-B
Fri 11:09:02 AM 47.2860 -117.9290 93° East 481 554 33,000  Level FlightAware ADS-B
Fri 11:09:42 AM 47.2820 -117.8170 93° East 481 554 33,000  Level FlightAware ADS-B
Fri 11:10:22 AM 47.2780 -117.7060 93° East 481 554 33,000  Level FlightAware ADS-B
Fri 11:11:02 AM 47.2750 -117.5950 92° East 481 554 33,000  Level FlightAware ADS-B
Fri 11:11:42 AM 47.2710 -117.4830 93° East 481 554 33,000  Level FlightAware ADS-B
Fri 11:12:32 AM 47.2660 -117.3440 93° East 481 554 33,000  Level FlightAware ADS-B
Fri 11:13:12 AM 47.2620 -117.2330 93° East 481 554 33,000  Level FlightAware ADS-B
Fri 11:13:52 AM 47.2580 -117.1210 93° East 481 554 33,000  Level FlightAware ADS-B
Fri 11:14:32 AM 47.2540 -117.0100 93° East 481 554 33,000  Level FlightAware ADS-B
Fri 11:15:12 AM 47.2500 -116.8990 93° East 481 554 33,000  Level FlightAware ADS-B
Fri 11:15:52 AM 47.2460 -116.7880 93° East 481 554 33,000  Level FlightAware ADS-B
Fri 11:16:42 AM 47.2410 -116.6480 93° East 481 554 33,000  Level FlightAware ADS-B
Fri 11:17:41 AM 47.1758 -116.2281 93° East 473 544 33,000  Level Salt Lake Center
Fri 11:18:43 AM 47.1628 -116.0342 96° East 474 545 33,000  Level Salt Lake Center
Fri 11:19:45 AM 47.1489 -115.8428 96° East 475 547 33,000 -51 Level Salt Lake Center
Fri 11:20:41 AM 47.1342 -115.6522 96° East 476 548 32,900 -51 Descending Seattle Center
Fri 11:21:42 AM 47.1194 -115.4606 96° East 476 548 32,900 49 Level Seattle Center
Fri 11:22:43 AM 47.1056 -115.2669 96° East 476 548 33,000 49 Climbing Seattle Center
Fri 11:23:44 AM 47.0908 -115.0778 96° East 472 543 33,000  Level Seattle Center
Fri 11:24:45 AM 47.0756 -114.8883 97° East 472 543 33,000  Level Seattle Center
Fri 11:25:46 AM 47.0567 -114.6589 97° East 474 545 33,000 -49 Level Seattle Center
Fri 11:26:47 AM 47.0403 -114.4678 97° East 475 547 32,900 -49 Descending Seattle Center
Fri 11:27:48 AM 47.0231 -114.2775 97° East 474 545 32,900 49 Level Seattle Center
Fri 11:28:49 AM 47.0069 -114.0867 97° East 474 545 33,000 79 Climbing Seattle Center
Fri 11:29:04 AM 47.0050 -114.0492 94° East 473 544 33,000 -78 Level Salt Lake Center
Fri 11:30:06 AM 46.9864 -113.8581 98° East 476 548 32,900 -48 Descending Salt Lake Center
Fri 11:31:08 AM 46.9689 -113.6675 98° East 475 547 32,900  Level Salt Lake Center
Fri 11:32:10 AM 46.9481 -113.4383 98° East 477 549 32,900 48 Level Salt Lake Center
Fri 11:33:12 AM 46.9289 -113.2478 98° East 476 548 33,000 48 Climbing Salt Lake Center
Fri 11:34:14 AM 46.9119 -113.0581 97° East 474 545 33,000  Level Salt Lake Center
Fri 11:35:16 AM 46.8950 -112.8739 98° East 472 543 33,000  Level Salt Lake Center
Fri 11:36:18 AM 46.8753 -112.6867 99° East 469 540 33,000  Level Salt Lake Center
Fri 11:37:20 AM 46.8528 -112.4617 98° East 468 539 33,000 -48 Level Salt Lake Center
Fri 11:38:22 AM 46.8331 -112.2733 99° East 470 541 32,900  Descending Salt Lake Center
Fri 11:39:24 AM 46.8136 -112.0853 99° East 471 542 33,000 48 Climbing Salt Lake Center
Fri 11:40:26 AM 46.7922 -111.8978 99° East 471 542 33,000 -48 Level Salt Lake Center
Fri 11:41:28 AM 46.7717 -111.7092 99° East 473 544 32,900  Descending Salt Lake Center
Fri 11:42:30 AM 46.7464 -111.4800 99° East 477 549 33,000 48 Climbing Salt Lake Center
Fri 11:43:32 AM 46.7250 -111.2908 99° East 478 550 33,000 -48 Level Salt Lake Center
Fri 11:44:34 AM 46.7022 -111.1019 100° East 478 550 32,900 -48 Descending Salt Lake Center
Fri 11:45:36 AM 46.6806 -110.9092 99° East 484 557 32,900 48 Level Salt Lake Center
Fri 11:46:38 AM 46.6581 -110.7222 100° East 475 547 33,000 48 Climbing Salt Lake Center
Fri 11:47:40 AM 46.6331 -110.5108 100° East 466 536 33,000  Level Salt Lake Center
Fri 11:48:42 AM 46.6106 -110.3319 100° East 469 540 33,000  Level Salt Lake Center
Fri 11:49:44 AM 46.5850 -110.1203 100° East 475 547 33,000  Level Salt Lake Center
Fri 11:50:46 AM 46.5631 -109.9406 100° East 474 545 33,000  Level Salt Lake Center
Fri 11:51:48 AM 46.5358 -109.7317 101° East 473 544 33,000  Level Salt Lake Center
Fri 11:52:50 AM 46.5125 -109.5508 101° East 473 544 33,000  Level Salt Lake Center
Fri 11:53:52 AM 46.4858 -109.3392 100° East 478 550 33,000  Level Salt Lake Center
Fri 11:54:54 AM 46.4625 -109.1600 101° East 474 545 33,000  Level Salt Lake Center
Fri 11:55:56 AM 46.4344 -108.9506 101° East 473 544 33,000  Level Salt Lake Center
Fri 11:56:58 AM 46.4097 -108.7708 101° East 474 545 33,000  Level Salt Lake Center
Fri 11:58:00 AM 46.3811 -108.5628 101° East 472 543 33,000  Level Salt Lake Center
Fri 11:59:02 AM 46.3556 -108.3808 101° East 479 551 33,000  Level Salt Lake Center
Fri 12:00:04 PM 46.3256 -108.1747 102° East 470 541 33,000  Level Salt Lake Center
Fri 12:01:07 PM 46.3000 -107.9958 102° East 474 545 33,000  Level Salt Lake Center
Fri 12:02:09 PM 46.2736 -107.8186 102° East 471 542 33,000  Level Salt Lake Center
Fri 12:03:11 PM 46.2431 -107.6078 102° East 476 548 33,000  Level Salt Lake Center
Fri 12:04:13 PM 46.2156 -107.4297 103° East 475 547 33,000  Level Salt Lake Center
Fri 12:05:15 PM 46.1847 -107.2208 102° East 475 547 33,000  Level Salt Lake Center
Fri 12:06:17 PM 46.1581 -107.0403 102° East 478 550 33,000  Level Salt Lake Center
Fri 12:07:19 PM 46.1247 -106.8336 103° East 476 548 33,000  Level Salt Lake Center
Fri 12:08:21 PM 46.0964 -106.6561 103° East 475 547 33,000  Level Salt Lake Center
Fri 12:09:23 PM 46.0625 -106.4467 103° East 478 550 33,000  Level Salt Lake Center
Fri 12:10:25 PM 46.0336 -106.2700 103° East 477 549 33,000  Level Salt Lake Center
Fri 12:11:27 PM 46.0042 -106.0911 103° East 478 550 33,000  Level Salt Lake Center
Fri 12:12:29 PM 45.9703 -105.8825 103° East 479 551 33,000  Level Salt Lake Center
Fri 12:13:31 PM 45.9397 -105.7036 104° East 480 552 33,000  Level Salt Lake Center
Fri 12:14:33 PM 45.9056 -105.4956 103° East 480 552 33,000  Level Salt Lake Center
Fri 12:15:35 PM 45.8758 -105.3192 104° East 477 549 33,000  Level Salt Lake Center
Fri 12:16:37 PM 45.8442 -105.1167 103° East 473 544 33,000  Level Salt Lake Center
Fri 12:17:39 PM 45.8131 -104.9400 104° East 477 549 33,000  Level Salt Lake Center
Fri 12:18:41 PM 45.7772 -104.7347 104° East 476 548 33,000  Level Salt Lake Center
Fri 12:19:43 PM 45.7458 -104.5589 104° East 477 549 33,000  Level Salt Lake Center
Fri 12:20:45 PM 45.7139 -104.3811 104° East 480 552 33,000 -48 Level Salt Lake Center
Fri 12:21:47 PM 45.6811 -104.1978 104° East 479 551 32,900  Descending Salt Lake Center
Fri 12:22:49 PM 45.6408 -103.9783 105° East 479 551 33,000 48 Climbing Salt Lake Center
Fri 12:23:51 PM 45.6064 -103.7944 105° East 481 554 33,000  Level Salt Lake Center
Fri 12:24:52 PM 45.5728 -103.6114 105° East 480 552 33,000 -49 Level Salt Lake Center
Fri 12:25:54 PM 45.5383 -103.4297 105° East 478 550 32,900  Descending Salt Lake Center
Fri 12:26:56 PM 45.5042 -103.2453 105° East 481 554 33,000 48 Climbing Salt Lake Center
Fri 12:27:58 PM 45.4694 -103.0592 105° East 487 560 33,000  Level Salt Lake Center
Fri 12:28:22 PM 45.4511 -102.9733 107° East 479 551 33,000  Level Minneapolis Center
Fri 12:29:24 PM 45.4153 -102.7906 106° East 480 552 33,000  Level Minneapolis Center
Fri 12:30:26 PM 45.3794 -102.6081 106° East 479 551 33,000  Level Minneapolis Center
Fri 12:31:28 PM 45.3433 -102.4258 106° East 480 552 33,000  Level Minneapolis Center
Fri 12:32:30 PM 45.2986 -102.2067 106° East 481 554 33,000  Level Minneapolis Center
Fri 12:33:32 PM 45.2619 -102.0256 106° East 480 552 33,000  Level Minneapolis Center
Fri 12:34:34 PM 45.2256 -101.8439 106° East 480 552 33,000  Level Minneapolis Center
Fri 12:35:36 PM 45.1883 -101.6614 106° East 481 554 33,000  Level Minneapolis Center
Fri 12:36:38 PM 45.1500 -101.4797 107° East 481 554 33,000  Level Minneapolis Center
Fri 12:37:40 PM 45.1119 -101.2986 107° East 482 555 33,000  Level Minneapolis Center
Fri 12:38:42 PM 45.0656 -101.0825 107° East 480 552 33,000  Level Minneapolis Center
Fri 12:39:44 PM 45.0294 -100.9011 106° East 480 552 33,000  Level Minneapolis Center
Fri 12:40:46 PM 44.9906 -100.7219 107° East 478 550 33,000  Level Minneapolis Center
Fri 12:41:48 PM 44.9508 -100.5431 107° East 479 551 33,000  Level Minneapolis Center
Fri 12:42:50 PM 44.9114 -100.3650 107° East 479 551 33,000  Level Minneapolis Center
Fri 12:43:52 PM 44.8717 -100.1892 108° East 479 551 33,000  Level Minneapolis Center
Fri 12:44:54 PM 44.8247 -99.9789 107° East 478 550 33,000  Level Minneapolis Center
Fri 12:45:56 PM 44.7842 -99.8028 108° East 479 551 33,000  Level Minneapolis Center
Fri 12:46:58 PM 44.7442 -99.6253 108° East 480 552 33,000  Level Minneapolis Center
Fri 12:48:01 PM 44.7039 -99.4481 108° East 480 552 33,000  Level Minneapolis Center
Fri 12:49:03 PM 44.6561 -99.2356 107° East 479 551 33,000  Level Minneapolis Center
Fri 12:50:05 PM 44.6153 -99.0586 108° East 478 550 33,000  Level Minneapolis Center
Fri 12:51:07 PM 44.5744 -98.8828 108° East 478 550 33,000  Level Minneapolis Center
Fri 12:56:27 PM 44.3480 -97.9490 108° East 472 543 33,000  Level FlightAware ADS-B
Fri 12:57:07 PM 44.3180 -97.8270 109° East 471 542 33,000  Level FlightAware ADS-B
Fri 12:57:47 PM 44.2890 -97.7100 109° East 470 541 33,000  Level FlightAware ADS-B
Fri 12:58:27 PM 44.2610 -97.5960 109° East 470 541 33,000  Level FlightAware ADS-B
Fri 12:59:12 PM 44.2300 -97.4710 109° East 469 540 33,000  Level FlightAware ADS-B
Fri 12:59:57 PM 44.1960 -97.3390 110° East 468 539 33,000  Level FlightAware ADS-B
Fri 01:00:37 PM 44.1680 -97.2270 109° East 467 537 33,000  Level FlightAware ADS-B
Fri 01:01:22 PM 44.1370 -97.1040 109° East 466 536 33,000  Level FlightAware ADS-B
Fri 01:02:02 PM 44.1080 -96.9900 109° East 466 536 33,000  Level FlightAware ADS-B
Fri 01:02:42 PM 44.0800 -96.8820 110° East 467 537 33,000  Level FlightAware ADS-B
Fri 01:03:22 PM 44.0490 -96.7630 110° East 467 537 33,000  Level FlightAware ADS-B
Fri 01:04:07 PM 44.0170 -96.6400 110° East 471 542 33,000  Level FlightAware ADS-B
Fri 01:04:52 PM 43.9830 -96.5090 110° East 473 544 33,000  Level FlightAware ADS-B
Fri 01:05:27 PM 43.9570 -96.4090 110° East 474 545 33,000 375 Level FlightAware ADS-B
Fri 01:06:12 PM 43.9230 -96.2790 110° East 478 550 33,500 706 Climbing FlightAware ADS-B
Fri 01:06:52 PM 43.8920 -96.1630 110° East 481 554 34,000 635 Climbing FlightAware ADS-B
Fri 01:07:37 PM 43.8580 -96.0350 110° East 486 559 34,400 706 Climbing FlightAware ADS-B
Fri 01:08:17 PM 43.8260 -95.9180 111° Southeast 484 557 35,000 424 Climbing FlightAware ADS-B
Fri 01:09:02 PM 43.7920 -95.7900 110° East 485 558 35,000  Level FlightAware ADS-B
Fri 01:09:42 PM 43.7590 -95.6690 111° Southeast 486 559 35,000  Level FlightAware ADS-B
Fri 01:10:27 PM 43.7240 -95.5400 111° Southeast 484 557 35,000  Level FlightAware ADS-B
Fri 01:11:07 PM 43.6930 -95.4250 110° East 484 557 35,000  Level FlightAware ADS-B
Fri 01:11:52 PM 43.6570 -95.2930 111° Southeast 479 551 35,000  Level FlightAware ADS-B
Fri 01:12:32 PM 43.6260 -95.1810 111° Southeast 477 549 35,000  Level FlightAware ADS-B
Fri 01:13:12 PM 43.5940 -95.0660 111° Southeast 475 547 35,000  Level FlightAware ADS-B
Fri 01:13:57 PM 43.5590 -94.9410 111° Southeast 474 545 35,000  Level FlightAware ADS-B
Fri 01:14:37 PM 43.5270 -94.8270 111° Southeast 473 544 35,000  Level FlightAware ADS-B
Fri 01:15:22 PM 43.4920 -94.7000 111° Southeast 472 543 35,000  Level FlightAware ADS-B
Fri 01:16:02 PM 43.4610 -94.5930 112° Southeast 473 544 35,000  Level FlightAware ADS-B
Fri 01:16:42 PM 43.4280 -94.4750 111° Southeast 472 543 35,000  Level FlightAware ADS-B
Fri 01:17:27 PM 43.3930 -94.3540 112° Southeast 473 544 35,000  Level FlightAware ADS-B
Fri 01:18:07 PM 43.3610 -94.2420 111° Southeast 475 547 35,000  Level FlightAware ADS-B
Fri 01:18:47 PM 43.3290 -94.1290 111° Southeast 477 549 35,000  Level FlightAware ADS-B
Fri 01:19:32 PM 43.2910 -93.9990 112° Southeast 479 551 35,000  Level FlightAware ADS-B
Fri 01:20:12 PM 43.2580 -93.8860 112° Southeast 481 554 35,000  Level FlightAware ADS-B
Fri 01:20:52 PM 43.2260 -93.7740 111° Southeast 482 555 35,000  Level FlightAware ADS-B
Fri 01:21:37 PM 43.1890 -93.6490 112° Southeast 483 556 35,000  Level FlightAware ADS-B
Fri 01:22:17 PM 43.1550 -93.5330 112° Southeast 485 558 35,000  Level FlightAware ADS-B
Fri 01:23:02 PM 43.1170 -93.4040 112° Southeast 485 558 35,000  Level FlightAware ADS-B
Fri 01:23:42 PM 43.0850 -93.2910 111° Southeast 487 560 35,000  Level FlightAware ADS-B
Fri 01:24:27 PM 43.0530 -93.1620 109° East 487 560 35,000  Level FlightAware ADS-B
Fri 01:25:07 PM 43.0230 -93.0450 109° East 487 560 35,000  Level FlightAware ADS-B
Fri 01:25:52 PM 42.9890 -92.9120 109° East 488 562 35,000  Level FlightAware ADS-B
Fri 01:26:32 PM 42.9600 -92.7960 109° East 489 563 35,000  Level FlightAware ADS-B
Fri 01:27:12 PM 42.9310 -92.6820 109° East 489 563 35,000  Level FlightAware ADS-B
Fri 01:27:57 PM 42.8970 -92.5530 110° East 489 563 35,000  Level FlightAware ADS-B
Fri 01:28:37 PM 42.8660 -92.4340 110° East 490 564 35,000  Level FlightAware ADS-B
Fri 01:29:22 PM 42.8320 -92.3050 110° East 491 565 35,000  Level FlightAware ADS-B
Fri 01:30:02 PM 42.8020 -92.1900 110° East 491 565 35,000  Level FlightAware ADS-B
Fri 01:30:42 PM 42.7720 -92.0730 109° East 491 565 35,000  Level FlightAware ADS-B
Fri 01:31:27 PM 42.7380 -91.9450 110° East 490 564 35,000  Level FlightAware ADS-B
Fri 01:32:07 PM 42.7070 -91.8270 110° East 490 564 35,000  Level FlightAware ADS-B
Fri 01:32:47 PM 42.6750 -91.7070 110° East 490 564 35,000  Level FlightAware ADS-B
Fri 01:33:32 PM 42.6400 -91.5810 111° Southeast 490 564 35,000  Level FlightAware ADS-B
Fri 01:34:12 PM 42.6090 -91.4660 110° East 490 564 35,000  Level FlightAware ADS-B
Fri 01:34:52 PM 42.5790 -91.3520 110° East 488 562 35,000  Level FlightAware ADS-B
Fri 01:35:37 PM 42.5420 -91.2190 111° Southeast 486 559 35,000  Level FlightAware ADS-B
Fri 01:36:22 PM 42.5090 -91.0970 110° East 485 558 35,000  Level FlightAware ADS-B
Fri 01:37:02 PM 42.4770 -90.9820 111° Southeast 482 555 35,000  Level FlightAware ADS-B
Fri 01:37:42 PM 42.4460 -90.8680 110° East 481 554 35,000  Level FlightAware ADS-B
Fri 01:38:27 PM 42.4100 -90.7400 111° Southeast 478 550 35,000  Level FlightAware ADS-B
Fri 01:39:07 PM 42.3750 -90.6310 113° Southeast 475 547 35,000  Level FlightAware ADS-B
Fri 01:39:52 PM 42.3360 -90.5190 115° Southeast 474 545 35,000  Level FlightAware ADS-B
Fri 01:40:27 PM 42.3030 -90.4220 115° Southeast 475 547 35,000  Level FlightAware ADS-B
Fri 01:41:12 PM 42.2590 -90.2970 115° Southeast 474 545 35,000  Level FlightAware ADS-B
Fri 01:41:57 PM 42.2190 -90.1820 115° Southeast 475 547 35,000  Level FlightAware ADS-B
Fri 01:42:37 PM 42.1810 -90.0730 115° Southeast 475 547 35,000  Level FlightAware ADS-B
Fri 01:43:22 PM 42.1380 -89.9500 115° Southeast 475 547 35,000  Level FlightAware ADS-B
Fri 01:44:02 PM 42.1000 -89.8420 115° Southeast 475 547 35,000  Level FlightAware ADS-B
Fri 01:44:42 PM 42.0620 -89.7360 116° Southeast 475 547 35,000  Level FlightAware ADS-B
Fri 01:45:27 PM 42.0190 -89.6140 115° Southeast 475 547 35,000  Level FlightAware ADS-B
Fri 01:46:07 PM 41.9820 -89.5120 116° Southeast 476 548 35,000  Level FlightAware ADS-B
Fri 01:46:52 PM 41.9380 -89.3890 116° Southeast 478 550 35,000  Level FlightAware ADS-B
Fri 01:47:32 PM 41.9000 -89.2830 116° Southeast 480 552 35,000  Level FlightAware ADS-B
Fri 01:48:12 PM 41.8610 -89.1760 116° Southeast 481 554 35,000  Level FlightAware ADS-B
Fri 01:48:52 PM 41.8220 -89.0680 116° Southeast 482 555 35,000  Level FlightAware ADS-B
Fri 01:49:37 PM 41.7780 -88.9470 116° Southeast 483 556 35,000  Level FlightAware ADS-B
Fri 01:50:17 PM 41.7390 -88.8390 116° Southeast 484 557 35,000  Level FlightAware ADS-B
Fri 01:51:02 PM 41.6950 -88.7200 116° Southeast 484 557 35,000  Level FlightAware ADS-B
Fri 01:51:42 PM 41.6550 -88.6110 116° Southeast 484 557 35,000  Level FlightAware ADS-B
Fri 01:52:27 PM 41.6110 -88.4910 116° Southeast 485 558 35,000  Level FlightAware ADS-B
Fri 01:53:07 PM 41.5700 -88.3820 117° Southeast 487 560 35,000  Level FlightAware ADS-B
Fri 01:53:47 PM 41.5360 -88.2700 112° Southeast 496 571 35,000  Level FlightAware ADS-B
Fri 01:54:32 PM 41.5080 -88.1400 106° East 498 573 35,000  Level FlightAware ADS-B
Fri 01:55:12 PM 41.4840 -88.0270 106° East 499 574 35,000  Level FlightAware ADS-B
Fri 01:55:57 PM 41.4540 -87.8920 106° East 500 575 35,000  Level FlightAware ADS-B
Fri 01:56:37 PM 41.4290 -87.7760 106° East 501 577 35,000  Level FlightAware ADS-B
Fri 01:57:22 PM 41.3990 -87.6390 106° East 501 577 35,000  Level FlightAware ADS-B
Fri 01:58:02 PM 41.3730 -87.5230 107° East 499 574 35,000  Level FlightAware ADS-B
Fri 01:58:42 PM 41.3470 -87.4050 106° East 495 570 35,000  Level FlightAware ADS-B
Fri 01:59:27 PM 41.3190 -87.2790 106° East 495 570 35,000  Level FlightAware ADS-B
Fri 02:00:07 PM 41.2920 -87.1630 107° East 496 571 35,000  Level FlightAware ADS-B
Fri 02:00:52 PM 41.2610 -87.0250 107° East 496 571 35,000  Level FlightAware ADS-B
Fri 02:01:27 PM 41.2370 -86.9200 107° East 496 571 35,000  Level FlightAware ADS-B
Fri 02:02:07 PM 41.2120 -86.8100 107° East 498 573 35,000  Level FlightAware ADS-B
Fri 02:03:02 PM 41.1750 -86.6490 107° East 498 573 35,000  Level FlightAware ADS-B
Fri 02:03:52 PM 41.1410 -86.4990 107° East 499 574 35,000  Level FlightAware ADS-B
Fri 02:04:32 PM 41.1140 -86.3840 107° East 500 575 35,000  Level FlightAware ADS-B
Fri 02:05:17 PM 41.0820 -86.2510 108° East 499 574 35,000  Level FlightAware ADS-B
Fri 02:05:57 PM 41.0550 -86.1360 107° East 494 568 35,000  Level FlightAware ADS-B
Fri 02:06:37 PM 41.0280 -86.0190 107° East 494 568 35,000  Level FlightAware ADS-B
Fri 02:07:12 PM 41.0050 -85.9260 108° East 494 568 35,000  Level FlightAware ADS-B
Fri 02:08:02 PM 40.9720 -85.7840 107° East 494 568 35,000  Level FlightAware ADS-B
Fri 02:08:42 PM 40.9500 -85.6860 107° East 494 568 35,000  Level FlightAware ADS-B
Fri 02:09:27 PM 40.9110 -85.5330 109° East 499 574 35,000  Level FlightAware ADS-B
Fri 02:10:02 PM 40.8880 -85.4350 107° East 500 575 35,000  Level FlightAware ADS-B
Fri 02:10:52 PM 40.8490 -85.2800 108° East 504 580 35,000  Level FlightAware ADS-B
Fri 02:11:32 PM 40.8210 -85.1640 108° East 499 574 35,000  Level FlightAware ADS-B
Fri 02:12:12 PM 40.7920 -85.0460 108° East 493 567 35,000  Level FlightAware ADS-B
Fri 02:12:57 PM 40.7610 -84.9210 108° East 493 567 35,000  Level FlightAware ADS-B
Fri 02:13:37 PM 40.7320 -84.8050 108° East 493 567 35,000  Level FlightAware ADS-B
Fri 02:14:22 PM 40.7000 -84.6790 108° East 492 566 35,000  Level FlightAware ADS-B
Fri 02:15:02 PM 40.6730 -84.5700 108° East 492 566 35,000  Level FlightAware ADS-B
Fri 02:15:47 PM 40.6380 -84.4340 109° East 487 560 35,000  Level FlightAware ADS-B
Fri 02:16:17 PM 40.6270 -84.3530 100° East 506 582 35,000  Level FlightAware ADS-B
Fri 02:17:07 PM 40.6410 -84.1940 83° East 509 586 35,000 -442 Level FlightAware ADS-B
Fri 02:17:52 PM 40.6500 -84.0560 85° East 507 583 34,300 -706 Descending FlightAware ADS-B
Fri 02:18:32 PM 40.6560 -83.9340 86° East 507 583 34,000 -225 Descending FlightAware ADS-B
Fri 02:19:12 PM 40.6620 -83.8130 86° East 507 583 34,000  Level FlightAware ADS-B
Fri 02:19:57 PM 40.6690 -83.6700 86° East 506 582 34,000  Level FlightAware ADS-B
Fri 02:20:37 PM 40.6760 -83.5470 86° East 506 582 34,000  Level FlightAware ADS-B
Fri 02:21:22 PM 40.6820 -83.4180 86° East 508 585 34,000  Level FlightAware ADS-B
Fri 02:21:47 PM 40.6870 -83.3330 86° East 510 587 34,000  Level FlightAware ADS-B
Fri 02:22:27 PM 40.6940 -83.2100 86° East 512 589 34,000  Level FlightAware ADS-B
Fri 02:23:12 PM 40.7010 -83.0720 86° East 514 592 34,000  Level FlightAware ADS-B
Fri 02:24:07 PM 40.7110 -82.9050 85° East 503 579 34,000  Level FlightAware ADS-B
Fri 02:24:47 PM 40.7180 -82.7870 85° East 503 579 34,000 494 Level FlightAware ADS-B
Fri 02:25:32 PM 40.7260 -82.6410 86° East 503 579 34,700 706 Climbing FlightAware ADS-B
Fri 02:26:12 PM 40.7330 -82.5310 85° East 506 582 35,000 212 Climbing FlightAware ADS-B
Fri 02:26:57 PM 40.7190 -82.3880 97° East 480 552 35,000  Level FlightAware ADS-B
Fri 02:27:37 PM 40.6750 -82.2870 120° Southeast 472 543 35,000  Level FlightAware ADS-B
Fri 02:28:17 PM 40.6310 -82.1870 120° Southeast 475 547 35,000  Level FlightAware ADS-B
Fri 02:28:57 PM 40.5870 -82.0860 120° Southeast 474 545 35,000  Level FlightAware ADS-B
Fri 02:29:32 PM 40.5500 -82.0010 120° Southeast 476 548 35,000  Level FlightAware ADS-B
Fri 02:30:17 PM 40.5000 -81.8880 120° Southeast 474 545 35,000  Level FlightAware ADS-B
Fri 02:30:57 PM 40.4560 -81.7890 120° Southeast 472 543 35,000  Level FlightAware ADS-B
Fri 02:31:37 PM 40.4110 -81.6900 121° Southeast 471 542 35,000  Level FlightAware ADS-B
Fri 02:32:17 PM 40.3680 -81.5920 120° Southeast 470 541 35,000  Level FlightAware ADS-B
Fri 02:33:02 PM 40.3190 -81.4830 120° Southeast 469 540 35,000  Level FlightAware ADS-B
Fri 02:33:32 PM 40.2840 -81.4060 121° Southeast 470 541 35,000  Level FlightAware ADS-B
Fri 02:34:12 PM 40.2400 -81.3090 121° Southeast 470 541 35,000  Level FlightAware ADS-B
Fri 02:34:52 PM 40.1970 -81.2130 120° Southeast 471 542 35,000  Level FlightAware ADS-B
Fri 02:35:37 PM 40.1460 -81.1010 121° Southeast 471 542 35,000  Level FlightAware ADS-B
Fri 02:36:17 PM 40.1030 -81.0060 121° Southeast 469 540 35,000  Level FlightAware ADS-B
Fri 02:36:57 PM 40.0580 -80.9080 121° Southeast 471 542 35,000  Level FlightAware ADS-B
Fri 02:37:42 PM 40.0080 -80.7990 121° Southeast 473 544 35,000 -424 Level FlightAware ADS-B
Fri 02:38:22 PM 39.9610 -80.7000 122° Southeast 473 544 34,400 -914 Descending FlightAware ADS-B
Fri 02:39:27 PM 39.8880 -80.5480 122° Southeast 479 551 33,400 -545 Descending FlightAware ADS-B
Fri 02:40:12 PM 39.8420 -80.4470 121° Southeast 479 551 33,400  Level FlightAware ADS-B
Fri 02:40:52 PM 39.8030 -80.3630 121° Southeast 479 551 33,400  Level FlightAware ADS-B
Fri 02:41:42 PM 39.7550 -80.2580 121° Southeast 479 551 33,400  Level FlightAware ADS-B
Fri 02:42:22 PM 39.7160 -80.1740 121° Southeast 479 551 33,400  Level FlightAware ADS-B
Fri 02:43:02 PM 39.6770 -80.0900 121° Southeast 479 551 33,400  Level FlightAware ADS-B
Fri 02:43:42 PM 39.6380 -80.0060 121° Southeast 479 551 33,400  Level FlightAware ADS-B
Fri 02:44:22 PM 39.5990 -79.9220 121° Southeast 479 551 33,400 -5,300 Level FlightAware ADS-B
Fri 02:44:42 PM 39.5440 -79.7910 119° Southeast 469 540 28,100 -6,545 Descending FlightAware ADS-B
Fri 02:45:17 PM 39.5440 -79.7910 119° Southeast 462 532 27,400 -776 Descending FlightAware ADS-B
Fri 02:46:07 PM 39.5020 -79.5570 103° East 451 519 27,000 -267 Descending FlightAware ADS-B
Fri 02:46:47 PM 39.4820 -79.4480 103° East 449 517 27,000 -975 Level FlightAware ADS-B
Fri 02:47:27 PM 39.4640 -79.3440 103° East 442 509 25,700 -1,958 Descending FlightAware ADS-B
Fri 02:48:22 PM 39.4380 -79.2040 103° East 434 499 23,900 -1,020 Descending FlightAware ADS-B
Fri 02:49:07 PM 39.4250 -79.0910 98° East 434 499 24,000 -71 Climbing FlightAware ADS-B
Fri 02:49:47 PM 39.4080 -78.9900 102° East 433 498 23,800 -1,425 Descending FlightAware ADS-B
Fri 02:50:27 PM 39.3890 -78.8890 104° East 427 491 22,100 -2,541 Descending FlightAware ADS-B
Fri 02:51:12 PM 39.3680 -78.7760 103° East 410 472 20,200 -2,467 Descending FlightAware ADS-B
Fri 02:51:57 PM 39.3490 -78.6770 104° East 395 455 18,400 -2,400 Descending FlightAware ADS-B
Fri 02:52:37 PM 39.3250 -78.5880 109° East 375 432 16,800 -2,475 Descending FlightAware ADS-B
Fri 02:53:17 PM 39.2850 -78.5160 126° Southeast 367 422 15,100 -2,541 Descending FlightAware ADS-B
Fri 02:54:02 PM 39.2420 -78.4370 125° Southeast 364 419 13,200 -2,320 Descending FlightAware ADS-B
Fri 02:54:32 PM 39.2130 -78.3840 125° Southeast 361 415 12,200 -1,971 Descending FlightAware ADS-B
Fri 02:55:12 PM 39.1780 -78.3070 120° Southeast 362 417 10,900 -1,800 Descending FlightAware ADS-B
Fri 02:55:22 PM 39.1750 -78.2890 102° East 359 413 10,700 -1,200 Descending FlightAware ADS-B
Fri 02:55:42 PM 39.1810 -78.2470 80° East 350 403 10,300 -1,467 Descending FlightAware ADS-B
Fri 02:56:07 PM 39.1970 -78.2010 66° East 345 397 9,600 -1,350 Descending FlightAware ADS-B
Fri 02:56:22 PM 39.2040 -78.1680 75° East 333 383 9,400 -400 Descending FlightAware ADS-B
Fri 02:56:52 PM 39.2110 -78.1130 81° East 312 359 9,300 -764 Descending FlightAware ADS-B
Fri 02:57:17 PM 39.2170 -78.0720 79° East 306 352 8,700 -1,418 Descending FlightAware ADS-B
Fri 02:57:47 PM 39.2260 -78.0170 78° East 299 344 8,000 -1,309 Descending FlightAware ADS-B
Fri 02:58:12 PM 39.2330 -77.9730 78° East 298 343 7,500 -1,320 Descending FlightAware ADS-B
Fri 02:58:37 PM 39.2390 -77.9350 78° East 295 339 6,900 -1,309 Descending FlightAware ADS-B
Fri 02:59:07 PM 39.2480 -77.8790 78° East 287 330 6,300 -1,200 Descending FlightAware ADS-B
Fri 02:59:37 PM 39.2550 -77.8310 79° East 284 327 5,700 -1,200 Descending FlightAware ADS-B
Fri 02:59:52 PM 39.2570 -77.8020 85° East 277 319 5,400 -1,371 Descending FlightAware ADS-B
Fri 03:00:12 PM 39.2540 -77.7690 97° East 274 315 4,900 -1,333 Descending FlightAware ADS-B
Fri 03:00:37 PM 39.2500 -77.7310 98° East 273 314 4,400 -900 Descending FlightAware ADS-B
Fri 03:01:12 PM 39.2440 -77.6750 98° East 269 310 4,000 -369 Descending FlightAware ADS-B
Fri 03:01:42 PM 39.2380 -77.6300 100° East 264 304 4,000  Level FlightAware ADS-B
Fri 03:01:47 PM 39.2380 -77.6290 90° East 262 302 4,000 -133 Level FlightAware ADS-B
Fri 03:02:27 PM 39.2150 -77.5730 118° Southeast 251 289 3,900 -436 Descending FlightAware ADS-B
Fri 03:02:42 PM 39.2060 -77.5490 116° Southeast 252 290 3,600 -982 Descending FlightAware ADS-B
Fri 03:03:22 PM 39.1860 -77.5010 118° Southeast 253 291 3,000 -923 Descending FlightAware ADS-B
Fri 03:03:47 PM 39.1690 -77.4680 124° Southeast 245 282 2,600 -600 Descending FlightAware ADS-B
Fri 03:04:12 PM 39.1450 -77.4480 147° Southeast 243 280 2,500 -300 Descending FlightAware ADS-B
Fri 03:04:27 PM 39.1400 -77.4450 155° Southeast 242 278 2,400 -300 Descending FlightAware ADS-B
Fri 03:05:12 PM 39.0900 -77.4300 167° South 219 252 2,200 -480 Descending FlightAware ADS-B
Fri 03:06:32 PM 39.0160 -77.4350 183° South 185 213 1,400 -436 Descending FlightAware ADS-B
Fri 03:07:02 PM 38.9980 -77.4350 180° South 158 182 1,400  Level FlightAware ADS-B

Login

Don't have an account? Register now (free) for customized features, flight alerts, and more!